Radar Infrared Satellite
Local weather data is currently unavailable.

5/26 Update: Failed hardware has been replaced. The datalink, which feeds weather data to the website, is incompatible with the new hardware and has to be replaced. We expect to have the new datalink by June 3rd or June 6th. We apologize for the inconvenience.

Visit our other weather website HardinCountyWeather.com for nearby local weather information.

spacer
KPVE - Beech River Regional Airport
Distance from Parsons: NW 4mi, 6km
Updated: Sun, 29-May-2016 7:35pm CDT
Clear
Clear
 Wind from calm
Wind: Calm
Temperature: 79°F , 26°C
Dew Point: 70°F , 21°C
Humidity: 74%
Barometer: 30.03 inHg , 1016.9 hPa
Clouds: Clear
Visibility: 10 miles , 16 km
2016/05/30 00:35 KPVE 300035Z AUTO 00000KT 10SM CLR 26/21 A3003 RMK
KSNH - Savannah, TN USA
Distance from Parsons: S 34mi, 54km
Updated: Sun, 29-May-2016 7:35pm CDT
Clear
Clear
 Wind from calm
Wind: Calm
Temperature: 81°F , 27°C
Heat Index: 85°F , 29°C
Dew Point: 72°F , 22°C
Humidity: 74%
Barometer: 30.03 inHg , 1016.9 hPa
Clouds: Clear
Visibility: 10 miles , 16 km
2016/05/30 00:35 KSNH 300035Z AUTO 00000KT 10SM CLR 27/22 A3003 RMK A01
 
KMKL - Jackson, TN, USA
Distance from Parsons: WNW 50mi, 81km
Updated: Sun, 29-May-2016 6:53pm CDT
Clear
Clear
 Wind from calm
Wind: Calm
Temperature: 81°F , 27°C
Heat Index: 85°F , 29°C
Dew Point: 70°F , 21°C
Humidity: 70%
Barometer: 30.03 inHg , 1016.9 hPa
Clouds: Clear
Visibility: 10 miles , 16 km
2016/05/29 23:53 KMKL 292353Z 00000KT 10SM CLR 27/21 A3003 RMK AO2 SLP166 T02720211 10311 20272 56009
KMEM - Memphis, TN, USA
Distance from Parsons: W 108mi, 173km
Updated: Sun, 29-May-2016 6:54pm CDT
Overcast
Overcast
 Wind from W
Wind: W 5 mph , 7 km/h
Temperature: 84°F , 29°C
Heat Index: 87°F , 31°C
Dew Point: 68°F , 20°C
Humidity: 58%
Barometer: 30.05 inHg , 1017.6 hPa
Clouds: Overcast
Visibility: 10 miles , 16 km
Cloud details: Few Clouds 4500 ft
Overcast 25000 ft
2016/05/29 23:54 KMEM 292354Z 28004KT 10SM FEW045 OVC250 29/20 A3005 RMK AO2 SLP172 T02890200 10322 20289 55006 $

Drawing for an outdoor playhouse.
Thursday June 30, 2016 at 1:00pm.
All proceeds go to benefit Decatur County CASA.
Click here for more information.
 
Weather Facts

Heating and Cooling Degrees

Heating and Cooling Degrees are indices that reflect demand for energy to heat or cool houses and businesses.

You are Visitor #